Terminal Aerodrome Forecast
Issued by NWS

Home | Current Version | Previous Version | Graphics & Text | Print | Product List | Glossary On
Versions: 1 2 3 4 5 6 7 8 9 10 11 12 13 14 15 16 17 18 19 20
081
FTUS42 KMHX 232340
TAFOAJ
TAF
KOAJ 232340Z 2400/2424 05010KT P6SM VCSH OVC007
     FM240300 05010KT P6SM VCSH OVC007
      TEMPO 2403/2407 OVC004
     FM241200 07010KT 4SM -SHRA OVC015
     FM241900 10011G20KT 3SM SHRA OVC020
      AMD LTD TO CLD VIS AND WIND=

USA.gov is the U.S. government's official web portal to all federal, state and local government web resources and services.